sensor_id;sensor_type;location;lat;lon;timestamp;P1;durP1;ratioP1;P2;durP2;ratioP2
5257;SDS011;2651;51.594;9.928;2023-12-20T00:01:02;2.75;;;2.50;;
5257;SDS011;2651;51.594;9.928;2023-12-20T00:02:04;3.03;;;2.72;;
5257;SDS011;2651;51.594;9.928;2023-12-20T00:03:06;1.90;;;1.80;;
5257;SDS011;2651;51.594;9.928;2023-12-20T00:04:08;2.83;;;2.53;;
5257;SDS011;2651;51.594;9.928;2023-12-20T00:05:10;2.50;;;2.40;;
5257;SDS011;2651;51.594;9.928;2023-12-20T00:06:12;1.98;;;1.88;;
5257;SDS011;2651;51.594;9.928;2023-12-20T00:07:14;3.00;;;2.72;;
5257;SDS011;2651;51.594;9.928;2023-12-20T00:08:16;3.22;;;2.80;;
5257;SDS011;2651;51.594;9.928;2023-12-20T00:09:20;2.65;;;2.05;;
5257;SDS011;2651;51.594;9.928;2023-12-20T00:10:24;1.80;;;1.70;;
5257;SDS011;2651;51.594;9.928;2023-12-20T00:11:26;2.38;;;2.22;;
5257;SDS011;2651;51.594;9.928;2023-12-20T00:12:32;2.60;;;2.50;;
5257;SDS011;2651;51.594;9.928;2023-12-20T00:13:33;2.30;;;2.10;;
5257;SDS011;2651;51.594;9.928;2023-12-20T00:14:35;2.05;;;1.95;;
5257;SDS011;2651;51.594;9.928;2023-12-20T00:15:39;2.33;;;2.22;;
5257;SDS011;2651;51.594;9.928;2023-12-20T00:16:40;2.45;;;2.25;;
5257;SDS011;2651;51.594;9.928;2023-12-20T00:17:44;7.50;;;2.30;;
5257;SDS011;2651;51.594;9.928;2023-12-20T00:18:47;2.10;;;2.00;;
5257;SDS011;2651;51.594;9.928;2023-12-20T00:19:49;2.10;;;2.00;;
5257;SDS011;2651;51.594;9.928;2023-12-20T00:20:50;3.05;;;2.83;;
5257;SDS011;2651;51.594;9.928;2023-12-20T00:21:52;2.38;;;2.28;;
5257;SDS011;2651;51.594;9.928;2023-12-20T00:22:55;1.98;;;1.75;;
5257;SDS011;2651;51.594;9.928;2023-12-20T00:24:01;1.70;;;1.60;;
5257;SDS011;2651;51.594;9.928;2023-12-20T00:25:03;7.90;;;2.50;;
5257;SDS011;2651;51.594;9.928;2023-12-20T00:26:05;2.50;;;1.95;;
5257;SDS011;2651;51.594;9.928;2023-12-20T00:27:06;2.60;;;2.40;;
5257;SDS011;2651;51.594;9.928;2023-12-20T00:28:08;2.40;;;2.20;;
5257;SDS011;2651;51.594;9.928;2023-12-20T00:29:10;2.50;;;2.40;;
5257;SDS011;2651;51.594;9.928;2023-12-20T00:30:11;2.63;;;2.42;;
5257;SDS011;2651;51.594;9.928;2023-12-20T00:31:17;1.80;;;1.70;;
5257;SDS011;2651;51.594;9.928;2023-12-20T00:32:19;2.08;;;1.98;;
5257;SDS011;2651;51.594;9.928;2023-12-20T00:33:21;2.45;;;1.98;;
5257;SDS011;2651;51.594;9.928;2023-12-20T00:34:23;2.33;;;2.13;;
5257;SDS011;2651;51.594;9.928;2023-12-20T00:35:25;3.22;;;2.03;;
5257;SDS011;2651;51.594;9.928;2023-12-20T00:36:27;2.00;;;1.90;;
5257;SDS011;2651;51.594;9.928;2023-12-20T00:37:29;1.92;;;1.83;;
5257;SDS011;2651;51.594;9.928;2023-12-20T00:38:30;2.05;;;1.95;;
5257;SDS011;2651;51.594;9.928;2023-12-20T00:39:32;2.60;;;2.40;;
5257;SDS011;2651;51.594;9.928;2023-12-20T00:40:36;2.13;;;2.03;;
5257;SDS011;2651;51.594;9.928;2023-12-20T00:41:41;2.20;;;2.05;;
5257;SDS011;2651;51.594;9.928;2023-12-20T00:42:42;2.42;;;2.30;;
5257;SDS011;2651;51.594;9.928;2023-12-20T00:43:45;2.28;;;2.15;;
5257;SDS011;2651;51.594;9.928;2023-12-20T00:44:47;3.00;;;2.80;;
5257;SDS011;2651;51.594;9.928;2023-12-20T00:45:49;2.00;;;1.90;;
5257;SDS011;2651;51.594;9.928;2023-12-20T00:46:51;2.45;;;2.25;;
5257;SDS011;2651;51.594;9.928;2023-12-20T00:47:52;3.00;;;2.42;;
5257;SDS011;2651;51.594;9.928;2023-12-20T00:48:54;1.90;;;1.75;;
5257;SDS011;2651;51.594;9.928;2023-12-20T00:49:56;2.28;;;2.17;;
5257;SDS011;2651;51.594;9.928;2023-12-20T00:50:58;2.55;;;2.35;;
5257;SDS011;2651;51.594;9.928;2023-12-20T00:52:00;2.40;;;2.05;;
5257;SDS011;2651;51.594;9.928;2023-12-20T00:53:01;1.70;;;1.60;;
5257;SDS011;2651;51.594;9.928;2023-12-20T00:54:03;2.53;;;2.10;;
5257;SDS011;2651;51.594;9.928;2023-12-20T00:55:05;3.53;;;2.75;;
5257;SDS011;2651;51.594;9.928;2023-12-20T00:56:07;2.35;;;2.15;;
5257;SDS011;2651;51.594;9.928;2023-12-20T00:57:09;2.88;;;2.60;;
5257;SDS011;2651;51.594;9.928;2023-12-20T00:58:11;2.70;;;2.50;;
5257;SDS011;2651;51.594;9.928;2023-12-20T00:59:13;2.30;;;2.20;;
5257;SDS011;2651;51.594;9.928;2023-12-20T01:00:16;2.38;;;2.22;;
5257;SDS011;2651;51.594;9.928;2023-12-20T01:01:18;1.83;;;1.73;;
5257;SDS011;2651;51.594;9.928;2023-12-20T01:02:19;2.80;;;2.60;;
5257;SDS011;2651;51.594;9.928;2023-12-20T01:03:21;2.45;;;2.00;;
5257;SDS011;2651;51.594;9.928;2023-12-20T01:04:23;2.17;;;2.08;;
5257;SDS011;2651;51.594;9.928;2023-12-20T01:05:28;2.15;;;1.98;;
5257;SDS011;2651;51.594;9.928;2023-12-20T01:06:30;2.20;;;2.10;;
5257;SDS011;2651;51.594;9.928;2023-12-20T01:07:33;2.67;;;2.42;;
5257;SDS011;2651;51.594;9.928;2023-12-20T01:08:35;2.17;;;2.08;;
5257;SDS011;2651;51.594;9.928;2023-12-20T01:09:38;2.65;;;2.45;;
5257;SDS011;2651;51.594;9.928;2023-12-20T01:10:43;2.00;;;1.88;;
5257;SDS011;2651;51.594;9.928;2023-12-20T01:11:48;3.83;;;3.00;;
5257;SDS011;2651;51.594;9.928;2023-12-20T01:12:50;2.50;;;2.30;;
5257;SDS011;2651;51.594;9.928;2023-12-20T01:13:52;2.17;;;1.95;;
5257;SDS011;2651;51.594;9.928;2023-12-20T01:14:54;3.83;;;3.03;;
5257;SDS011;2651;51.594;9.928;2023-12-20T01:15:55;2.40;;;2.30;;
5257;SDS011;2651;51.594;9.928;2023-12-20T01:16:58;2.95;;;2.75;;
5257;SDS011;2651;51.594;9.928;2023-12-20T01:18:00;2.35;;;2.15;;
5257;SDS011;2651;51.594;9.928;2023-12-20T01:19:04;2.97;;;2.67;;
5257;SDS011;2651;51.594;9.928;2023-12-20T01:20:06;2.70;;;2.50;;
5257;SDS011;2651;51.594;9.928;2023-12-20T01:21:13;2.30;;;2.10;;
5257;SDS011;2651;51.594;9.928;2023-12-20T01:22:15;3.97;;;2.47;;
5257;SDS011;2651;51.594;9.928;2023-12-20T01:23:17;2.45;;;2.33;;
5257;SDS011;2651;51.594;9.928;2023-12-20T01:24:21;2.72;;;2.35;;
5257;SDS011;2651;51.594;9.928;2023-12-20T01:25:28;2.80;;;2.60;;
5257;SDS011;2651;51.594;9.928;2023-12-20T01:26:30;2.20;;;2.10;;
5257;SDS011;2651;51.594;9.928;2023-12-20T01:27:32;2.58;;;2.35;;
5257;SDS011;2651;51.594;9.928;2023-12-20T01:28:33;2.30;;;2.15;;
5257;SDS011;2651;51.594;9.928;2023-12-20T01:29:35;2.13;;;1.95;;
5257;SDS011;2651;51.594;9.928;2023-12-20T01:30:37;2.30;;;2.17;;
5257;SDS011;2651;51.594;9.928;2023-12-20T01:31:40;2.42;;;2.22;;
5257;SDS011;2651;51.594;9.928;2023-12-20T01:32:42;2.88;;;2.67;;
5257;SDS011;2651;51.594;9.928;2023-12-20T01:33:43;1.98;;;1.88;;
5257;SDS011;2651;51.594;9.928;2023-12-20T01:34:45;2.20;;;2.10;;
5257;SDS011;2651;51.594;9.928;2023-12-20T01:35:47;3.00;;;2.70;;
5257;SDS011;2651;51.594;9.928;2023-12-20T01:36:49;1.73;;;1.63;;
5257;SDS011;2651;51.594;9.928;2023-12-20T01:37:53;2.83;;;2.60;;
5257;SDS011;2651;51.594;9.928;2023-12-20T01:38:58;2.50;;;2.30;;
5257;SDS011;2651;51.594;9.928;2023-12-20T01:40:00;2.78;;;2.53;;
5257;SDS011;2651;51.594;9.928;2023-12-20T01:41:05;2.30;;;2.20;;
5257;SDS011;2651;51.594;9.928;2023-12-20T01:42:07;4.03;;;3.08;;
5257;SDS011;2651;51.594;9.928;2023-12-20T01:43:09;2.33;;;2.22;;
5257;SDS011;2651;51.594;9.928;2023-12-20T01:44:11;3.17;;;2.35;;
5257;SDS011;2651;51.594;9.928;2023-12-20T01:45:12;2.45;;;2.25;;
5257;SDS011;2651;51.594;9.928;2023-12-20T01:46:14;3.50;;;2.40;;
5257;SDS011;2651;51.594;9.928;2023-12-20T01:47:17;2.70;;;2.40;;
5257;SDS011;2651;51.594;9.928;2023-12-20T01:48:18;2.17;;;2.08;;
5257;SDS011;2651;51.594;9.928;2023-12-20T01:49:21;2.65;;;2.55;;
5257;SDS011;2651;51.594;9.928;2023-12-20T01:50:24;2.85;;;2.65;;
5257;SDS011;2651;51.594;9.928;2023-12-20T01:51:26;2.78;;;2.17;;
5257;SDS011;2651;51.594;9.928;2023-12-20T01:52:29;3.20;;;2.25;;
5257;SDS011;2651;51.594;9.928;2023-12-20T01:53:31;2.10;;;2.00;;
5257;SDS011;2651;51.594;9.928;2023-12-20T01:54:34;2.97;;;2.78;;
5257;SDS011;2651;51.594;9.928;2023-12-20T01:55:37;3.00;;;2.55;;
5257;SDS011;2651;51.594;9.928;2023-12-20T01:56:40;1.75;;;1.65;;
5257;SDS011;2651;51.594;9.928;2023-12-20T01:57:42;2.78;;;2.58;;
5257;SDS011;2651;51.594;9.928;2023-12-20T01:58:46;2.80;;;2.60;;
5257;SDS011;2651;51.594;9.928;2023-12-20T01:59:48;2.80;;;2.60;;
5257;SDS011;2651;51.594;9.928;2023-12-20T02:00:50;4.15;;;2.75;;
5257;SDS011;2651;51.594;9.928;2023-12-20T02:01:57;2.85;;;2.47;;
5257;SDS011;2651;51.594;9.928;2023-12-20T02:03:00;3.80;;;2.45;;
5257;SDS011;2651;51.594;9.928;2023-12-20T02:04:07;3.13;;;2.55;;
5257;SDS011;2651;51.594;9.928;2023-12-20T02:05:09;3.38;;;3.08;;
5257;SDS011;2651;51.594;9.928;2023-12-20T02:06:12;3.20;;;2.65;;
5257;SDS011;2651;51.594;9.928;2023-12-20T02:07:14;2.55;;;2.10;;
5257;SDS011;2651;51.594;9.928;2023-12-20T02:08:16;2.40;;;2.25;;
5257;SDS011;2651;51.594;9.928;2023-12-20T02:09:18;2.63;;;2.42;;
5257;SDS011;2651;51.594;9.928;2023-12-20T02:10:19;2.88;;;2.67;;
5257;SDS011;2651;51.594;9.928;2023-12-20T02:11:21;2.25;;;2.05;;
5257;SDS011;2651;51.594;9.928;2023-12-20T02:12:23;2.33;;;2.13;;
5257;SDS011;2651;51.594;9.928;2023-12-20T02:13:25;3.42;;;2.17;;
5257;SDS011;2651;51.594;9.928;2023-12-20T02:14:27;3.92;;;2.63;;
5257;SDS011;2651;51.594;9.928;2023-12-20T02:15:29;2.15;;;2.05;;
5257;SDS011;2651;51.594;9.928;2023-12-20T02:16:31;7.78;;;2.30;;
5257;SDS011;2651;51.594;9.928;2023-12-20T02:17:33;3.55;;;2.20;;
5257;SDS011;2651;51.594;9.928;2023-12-20T02:18:35;3.35;;;2.47;;
5257;SDS011;2651;51.594;9.928;2023-12-20T02:19:37;3.30;;;2.90;;
5257;SDS011;2651;51.594;9.928;2023-12-20T02:20:40;2.60;;;2.10;;
5257;SDS011;2651;51.594;9.928;2023-12-20T02:21:42;1.83;;;1.73;;
5257;SDS011;2651;51.594;9.928;2023-12-20T02:22:48;2.50;;;2.30;;
5257;SDS011;2651;51.594;9.928;2023-12-20T02:23:50;2.20;;;2.10;;
5257;SDS011;2651;51.594;9.928;2023-12-20T02:24:59;3.15;;;2.35;;
5257;SDS011;2651;51.594;9.928;2023-12-20T02:26:01;1.77;;;1.65;;
5257;SDS011;2651;51.594;9.928;2023-12-20T02:27:04;2.50;;;1.85;;
5257;SDS011;2651;51.594;9.928;2023-12-20T02:28:08;1.90;;;1.80;;
5257;SDS011;2651;51.594;9.928;2023-12-20T02:29:10;1.65;;;1.30;;
5257;SDS011;2651;51.594;9.928;2023-12-20T02:30:11;1.75;;;1.65;;
5257;SDS011;2651;51.594;9.928;2023-12-20T02:31:20;1.80;;;1.70;;
5257;SDS011;2651;51.594;9.928;2023-12-20T02:32:24;2.22;;;2.10;;
5257;SDS011;2651;51.594;9.928;2023-12-20T02:33:30;1.55;;;1.45;;
5257;SDS011;2651;51.594;9.928;2023-12-20T02:34:32;2.30;;;2.20;;
5257;SDS011;2651;51.594;9.928;2023-12-20T02:35:33;1.73;;;1.50;;
5257;SDS011;2651;51.594;9.928;2023-12-20T02:36:35;1.45;;;1.35;;
5257;SDS011;2651;51.594;9.928;2023-12-20T02:37:37;1.38;;;1.27;;
5257;SDS011;2651;51.594;9.928;2023-12-20T02:38:41;2.85;;;2.08;;
5257;SDS011;2651;51.594;9.928;2023-12-20T02:39:43;1.88;;;1.77;;
5257;SDS011;2651;51.594;9.928;2023-12-20T02:40:44;1.92;;;1.60;;
5257;SDS011;2651;51.594;9.928;2023-12-20T02:41:50;2.38;;;2.17;;
5257;SDS011;2651;51.594;9.928;2023-12-20T02:42:52;1.33;;;1.23;;
5257;SDS011;2651;51.594;9.928;2023-12-20T02:43:53;2.10;;;2.00;;
5257;SDS011;2651;51.594;9.928;2023-12-20T02:44:55;3.17;;;1.50;;
5257;SDS011;2651;51.594;9.928;2023-12-20T02:45:57;8.63;;;1.80;;
5257;SDS011;2651;51.594;9.928;2023-12-20T02:46:59;2.00;;;1.90;;
5257;SDS011;2651;51.594;9.928;2023-12-20T02:48:01;2.00;;;1.90;;
5257;SDS011;2651;51.594;9.928;2023-12-20T02:49:05;2.63;;;1.70;;
5257;SDS011;2651;51.594;9.928;2023-12-20T02:50:08;1.90;;;1.80;;
5257;SDS011;2651;51.594;9.928;2023-12-20T02:51:10;2.83;;;1.73;;
5257;SDS011;2651;51.594;9.928;2023-12-20T02:52:12;2.00;;;1.83;;
5257;SDS011;2651;51.594;9.928;2023-12-20T02:53:13;2.65;;;1.42;;
5257;SDS011;2651;51.594;9.928;2023-12-20T02:54:15;2.00;;;1.75;;
5257;SDS011;2651;51.594;9.928;2023-12-20T02:55:17;1.25;;;1.25;;
5257;SDS011;2651;51.594;9.928;2023-12-20T02:56:21;1.40;;;1.40;;
5257;SDS011;2651;51.594;9.928;2023-12-20T02:57:23;1.40;;;1.30;;
5257;SDS011;2651;51.594;9.928;2023-12-20T02:58:25;1.35;;;1.13;;
5257;SDS011;2651;51.594;9.928;2023-12-20T02:59:26;1.88;;;1.65;;
5257;SDS011;2651;51.594;9.928;2023-12-20T03:00:28;1.77;;;1.55;;
5257;SDS011;2651;51.594;9.928;2023-12-20T03:01:34;1.50;;;1.40;;
5257;SDS011;2651;51.594;9.928;2023-12-20T03:02:40;1.85;;;1.75;;
5257;SDS011;2651;51.594;9.928;2023-12-20T03:03:41;5.03;;;2.20;;
5257;SDS011;2651;51.594;9.928;2023-12-20T03:04:43;2.20;;;1.88;;
5257;SDS011;2651;51.594;9.928;2023-12-20T03:05:45;2.65;;;2.00;;
5257;SDS011;2651;51.594;9.928;2023-12-20T03:06:47;2.03;;;1.63;;
5257;SDS011;2651;51.594;9.928;2023-12-20T03:07:49;3.22;;;1.52;;
5257;SDS011;2651;51.594;9.928;2023-12-20T03:08:51;6.38;;;2.05;;
5257;SDS011;2651;51.594;9.928;2023-12-20T03:10:00;2.28;;;1.50;;
5257;SDS011;2651;51.594;9.928;2023-12-20T03:11:20;5.30;;;1.50;;
5257;SDS011;2651;51.594;9.928;2023-12-20T03:12:22;1.65;;;1.45;;
5257;SDS011;2651;51.594;9.928;2023-12-20T03:13:23;1.98;;;1.88;;
5257;SDS011;2651;51.594;9.928;2023-12-20T03:14:25;1.83;;;1.40;;
5257;SDS011;2651;51.594;9.928;2023-12-20T03:15:31;1.70;;;1.60;;
5257;SDS011;2651;51.594;9.928;2023-12-20T03:16:33;1.55;;;1.45;;
5257;SDS011;2651;51.594;9.928;2023-12-20T03:17:37;2.08;;;1.40;;
5257;SDS011;2651;51.594;9.928;2023-12-20T03:18:39;1.50;;;1.42;;
5257;SDS011;2651;51.594;9.928;2023-12-20T03:19:40;3.35;;;1.17;;
5257;SDS011;2651;51.594;9.928;2023-12-20T03:20:42;1.63;;;1.35;;
5257;SDS011;2651;51.594;9.928;2023-12-20T03:21:44;1.60;;;1.50;;
5257;SDS011;2651;51.594;9.928;2023-12-20T03:22:46;7.93;;;1.70;;
5257;SDS011;2651;51.594;9.928;2023-12-20T03:23:47;2.10;;;1.80;;
5257;SDS011;2651;51.594;9.928;2023-12-20T03:24:49;1.95;;;1.48;;
5257;SDS011;2651;51.594;9.928;2023-12-20T03:25:51;1.65;;;1.17;;
5257;SDS011;2651;51.594;9.928;2023-12-20T03:26:53;1.60;;;1.20;;
5257;SDS011;2651;51.594;9.928;2023-12-20T03:27:57;2.35;;;1.60;;
5257;SDS011;2651;51.594;9.928;2023-12-20T03:28:59;1.52;;;1.42;;
5257;SDS011;2651;51.594;9.928;2023-12-20T03:30:01;3.42;;;1.70;;
5257;SDS011;2651;51.594;9.928;2023-12-20T03:31:03;1.60;;;1.50;;
5257;SDS011;2651;51.594;9.928;2023-12-20T03:32:05;2.35;;;1.50;;
5257;SDS011;2651;51.594;9.928;2023-12-20T03:33:07;0.85;;;0.85;;
5257;SDS011;2651;51.594;9.928;2023-12-20T03:34:08;6.38;;;1.50;;
5257;SDS011;2651;51.594;9.928;2023-12-20T03:35:10;1.55;;;1.45;;
5257;SDS011;2651;51.594;9.928;2023-12-20T03:36:12;3.50;;;1.30;;
5257;SDS011;2651;51.594;9.928;2023-12-20T03:37:14;2.35;;;1.13;;
5257;SDS011;2651;51.594;9.928;2023-12-20T03:38:16;1.23;;;1.13;;
5257;SDS011;2651;51.594;9.928;2023-12-20T03:39:18;2.65;;;1.30;;
5257;SDS011;2651;51.594;9.928;2023-12-20T03:40:19;1.42;;;1.33;;
5257;SDS011;2651;51.594;9.928;2023-12-20T03:41:24;1.60;;;1.50;;
5257;SDS011;2651;51.594;9.928;2023-12-20T03:42:25;1.10;;;1.00;;
5257;SDS011;2651;51.594;9.928;2023-12-20T03:43:27;1.17;;;1.13;;
5257;SDS011;2651;51.594;9.928;2023-12-20T03:44:31;1.08;;;1.00;;
5257;SDS011;2651;51.594;9.928;2023-12-20T03:45:33;0.90;;;0.90;;
5257;SDS011;2651;51.594;9.928;2023-12-20T03:46:35;2.10;;;1.13;;
5257;SDS011;2651;51.594;9.928;2023-12-20T03:47:36;3.08;;;1.20;;
5257;SDS011;2651;51.594;9.928;2023-12-20T03:48:38;0.80;;;0.80;;
5257;SDS011;2651;51.594;9.928;2023-12-20T03:49:40;2.85;;;1.30;;
5257;SDS011;2651;51.594;9.928;2023-12-20T03:50:42;1.13;;;1.00;;
5257;SDS011;2651;51.594;9.928;2023-12-20T03:51:47;1.45;;;1.17;;
5257;SDS011;2651;51.594;9.928;2023-12-20T03:52:48;1.70;;;1.23;;
5257;SDS011;2651;51.594;9.928;2023-12-20T03:53:50;0.95;;;0.95;;
5257;SDS011;2651;51.594;9.928;2023-12-20T03:54:52;0.80;;;0.80;;
5257;SDS011;2651;51.594;9.928;2023-12-20T03:55:53;0.82;;;0.80;;
5257;SDS011;2651;51.594;9.928;2023-12-20T03:56:55;7.93;;;0.70;;
5257;SDS011;2651;51.594;9.928;2023-12-20T03:58:00;1.88;;;1.13;;
5257;SDS011;2651;51.594;9.928;2023-12-20T03:59:10;1.27;;;1.10;;
5257;SDS011;2651;51.594;9.928;2023-12-20T04:00:12;1.15;;;0.90;;
5257;SDS011;2651;51.594;9.928;2023-12-20T04:01:14;1.23;;;1.00;;
5257;SDS011;2651;51.594;9.928;2023-12-20T04:02:16;1.85;;;0.90;;
5257;SDS011;2651;51.594;9.928;2023-12-20T04:03:19;0.80;;;0.70;;
5257;SDS011;2651;51.594;9.928;2023-12-20T04:04:21;3.50;;;0.90;;
5257;SDS011;2651;51.594;9.928;2023-12-20T04:05:23;2.08;;;0.70;;
5257;SDS011;2651;51.594;9.928;2023-12-20T04:06:27;1.23;;;1.08;;
5257;SDS011;2651;51.594;9.928;2023-12-20T04:07:29;1.15;;;1.05;;
5257;SDS011;2651;51.594;9.928;2023-12-20T04:08:31;0.70;;;0.70;;
5257;SDS011;2651;51.594;9.928;2023-12-20T04:09:33;1.40;;;0.93;;
5257;SDS011;2651;51.594;9.928;2023-12-20T04:10:35;1.67;;;0.95;;
5257;SDS011;2651;51.594;9.928;2023-12-20T04:11:38;5.13;;;1.13;;
5257;SDS011;2651;51.594;9.928;2023-12-20T04:12:40;2.47;;;0.60;;
5257;SDS011;2651;51.594;9.928;2023-12-20T04:13:42;1.88;;;0.90;;
5257;SDS011;2651;51.594;9.928;2023-12-20T04:14:43;0.85;;;0.85;;
5257;SDS011;2651;51.594;9.928;2023-12-20T04:15:45;2.35;;;1.08;;
5257;SDS011;2651;51.594;9.928;2023-12-20T04:16:53;1.48;;;0.82;;
5257;SDS011;2651;51.594;9.928;2023-12-20T04:18:03;0.80;;;0.80;;
5257;SDS011;2651;51.594;9.928;2023-12-20T04:19:05;0.70;;;0.70;;
5257;SDS011;2651;51.594;9.928;2023-12-20T04:20:08;0.88;;;0.80;;
5257;SDS011;2651;51.594;9.928;2023-12-20T04:21:10;0.90;;;0.90;;
5257;SDS011;2651;51.594;9.928;2023-12-20T04:22:12;2.45;;;1.17;;
5257;SDS011;2651;51.594;9.928;2023-12-20T04:23:14;7.70;;;1.08;;
5257;SDS011;2651;51.594;9.928;2023-12-20T04:24:16;1.40;;;0.77;;
5257;SDS011;2651;51.594;9.928;2023-12-20T04:25:24;6.15;;;1.00;;
5257;SDS011;2651;51.594;9.928;2023-12-20T04:26:26;0.82;;;0.82;;
5257;SDS011;2651;51.594;9.928;2023-12-20T04:27:28;2.58;;;1.13;;
5257;SDS011;2651;51.594;9.928;2023-12-20T04:28:33;1.10;;;1.00;;
5257;SDS011;2651;51.594;9.928;2023-12-20T04:29:37;2.15;;;0.70;;
5257;SDS011;2651;51.594;9.928;2023-12-20T04:30:39;1.02;;;0.70;;
5257;SDS011;2651;51.594;9.928;2023-12-20T04:31:41;1.90;;;0.90;;
5257;SDS011;2651;51.594;9.928;2023-12-20T04:32:43;2.10;;;0.75;;
5257;SDS011;2651;51.594;9.928;2023-12-20T04:33:45;2.42;;;0.70;;
5257;SDS011;2651;51.594;9.928;2023-12-20T04:34:48;0.70;;;0.70;;
5257;SDS011;2651;51.594;9.928;2023-12-20T04:35:49;3.45;;;0.90;;
5257;SDS011;2651;51.594;9.928;2023-12-20T04:36:52;1.35;;;1.02;;
5257;SDS011;2651;51.594;9.928;2023-12-20T04:37:57;7.13;;;0.98;;
5257;SDS011;2651;51.594;9.928;2023-12-20T04:39:05;2.38;;;1.05;;
5257;SDS011;2651;51.594;9.928;2023-12-20T04:40:08;0.70;;;0.70;;
5257;SDS011;2651;51.594;9.928;2023-12-20T04:41:12;0.73;;;0.70;;
5257;SDS011;2651;51.594;9.928;2023-12-20T04:42:17;3.13;;;0.82;;
5257;SDS011;2651;51.594;9.928;2023-12-20T04:43:18;2.00;;;1.20;;
5257;SDS011;2651;51.594;9.928;2023-12-20T04:44:20;4.72;;;1.35;;
5257;SDS011;2651;51.594;9.928;2023-12-20T04:45:22;1.38;;;1.27;;
5257;SDS011;2651;51.594;9.928;2023-12-20T04:46:30;5.43;;;1.25;;
5257;SDS011;2651;51.594;9.928;2023-12-20T04:47:33;1.20;;;1.10;;
5257;SDS011;2651;51.594;9.928;2023-12-20T04:48:35;1.13;;;1.00;;
5257;SDS011;2651;51.594;9.928;2023-12-20T04:49:40;0.90;;;0.90;;
5257;SDS011;2651;51.594;9.928;2023-12-20T04:50:42;2.35;;;1.33;;
5257;SDS011;2651;51.594;9.928;2023-12-20T04:51:47;3.45;;;1.15;;
5257;SDS011;2651;51.594;9.928;2023-12-20T04:52:49;0.80;;;0.80;;
5257;SDS011;2651;51.594;9.928;2023-12-20T04:53:51;3.20;;;1.17;;
5257;SDS011;2651;51.594;9.928;2023-12-20T04:54:52;1.10;;;0.90;;
5257;SDS011;2651;51.594;9.928;2023-12-20T04:55:57;1.00;;;0.90;;
5257;SDS011;2651;51.594;9.928;2023-12-20T04:56:59;3.15;;;1.45;;
5257;SDS011;2651;51.594;9.928;2023-12-20T04:58:01;1.13;;;1.00;;
5257;SDS011;2651;51.594;9.928;2023-12-20T04:59:07;5.28;;;1.40;;
5257;SDS011;2651;51.594;9.928;2023-12-20T05:00:09;0.70;;;0.70;;
5257;SDS011;2651;51.594;9.928;2023-12-20T05:01:12;2.25;;;1.00;;
5257;SDS011;2651;51.594;9.928;2023-12-20T05:02:15;2.40;;;1.00;;
5257;SDS011;2651;51.594;9.928;2023-12-20T05:03:16;0.80;;;0.80;;
5257;SDS011;2651;51.594;9.928;2023-12-20T05:04:20;6.10;;;1.13;;
5257;SDS011;2651;51.594;9.928;2023-12-20T05:05:25;3.35;;;1.20;;
5257;SDS011;2651;51.594;9.928;2023-12-20T05:06:26;1.10;;;1.00;;
5257;SDS011;2651;51.594;9.928;2023-12-20T05:07:31;1.75;;;0.77;;
5257;SDS011;2651;51.594;9.928;2023-12-20T05:08:36;1.25;;;1.00;;
5257;SDS011;2651;51.594;9.928;2023-12-20T05:09:37;3.35;;;1.70;;
5257;SDS011;2651;51.594;9.928;2023-12-20T05:10:39;0.60;;;0.60;;
5257;SDS011;2651;51.594;9.928;2023-12-20T05:11:41;1.45;;;0.90;;
5257;SDS011;2651;51.594;9.928;2023-12-20T05:12:43;5.53;;;1.00;;
5257;SDS011;2651;51.594;9.928;2023-12-20T05:13:45;4.55;;;1.40;;
5257;SDS011;2651;51.594;9.928;2023-12-20T05:14:51;1.27;;;1.17;;
5257;SDS011;2651;51.594;9.928;2023-12-20T05:15:55;4.03;;;1.80;;
5257;SDS011;2651;51.594;9.928;2023-12-20T05:17:00;1.73;;;1.10;;
5257;SDS011;2651;51.594;9.928;2023-12-20T05:18:02;5.80;;;1.42;;
5257;SDS011;2651;51.594;9.928;2023-12-20T05:19:07;2.67;;;1.10;;
5257;SDS011;2651;51.594;9.928;2023-12-20T05:20:09;4.97;;;1.05;;
5257;SDS011;2651;51.594;9.928;2023-12-20T05:21:11;0.77;;;0.75;;
5257;SDS011;2651;51.594;9.928;2023-12-20T05:22:15;1.20;;;1.10;;
5257;SDS011;2651;51.594;9.928;2023-12-20T05:23:21;1.58;;;1.00;;
5257;SDS011;2651;51.594;9.928;2023-12-20T05:24:26;1.00;;;0.90;;
5257;SDS011;2651;51.594;9.928;2023-12-20T05:25:27;1.50;;;0.90;;
5257;SDS011;2651;51.594;9.928;2023-12-20T05:26:29;3.85;;;0.93;;
5257;SDS011;2651;51.594;9.928;2023-12-20T05:27:31;2.17;;;1.05;;
5257;SDS011;2651;51.594;9.928;2023-12-20T05:28:33;6.80;;;1.00;;
5257;SDS011;2651;51.594;9.928;2023-12-20T05:29:35;1.88;;;0.90;;
5257;SDS011;2651;51.594;9.928;2023-12-20T05:30:36;1.08;;;1.08;;
5257;SDS011;2651;51.594;9.928;2023-12-20T05:31:38;1.15;;;0.98;;
5257;SDS011;2651;51.594;9.928;2023-12-20T05:32:40;2.90;;;1.00;;
5257;SDS011;2651;51.594;9.928;2023-12-20T05:33:42;5.85;;;1.65;;
5257;SDS011;2651;51.594;9.928;2023-12-20T05:34:44;1.15;;;1.05;;
5257;SDS011;2651;51.594;9.928;2023-12-20T05:35:45;2.10;;;1.42;;
5257;SDS011;2651;51.594;9.928;2023-12-20T05:36:47;4.10;;;1.20;;
5257;SDS011;2651;51.594;9.928;2023-12-20T05:37:49;1.85;;;0.90;;
5257;SDS011;2651;51.594;9.928;2023-12-20T05:38:51;1.88;;;1.13;;
5257;SDS011;2651;51.594;9.928;2023-12-20T05:39:53;1.05;;;0.98;;
5257;SDS011;2651;51.594;9.928;2023-12-20T05:40:54;1.25;;;1.15;;
5257;SDS011;2651;51.594;9.928;2023-12-20T05:41:56;2.47;;;1.10;;
5257;SDS011;2651;51.594;9.928;2023-12-20T05:42:58;0.90;;;0.90;;
5257;SDS011;2651;51.594;9.928;2023-12-20T05:44:04;3.83;;;1.10;;
5257;SDS011;2651;51.594;9.928;2023-12-20T05:45:06;1.55;;;1.10;;
5257;SDS011;2651;51.594;9.928;2023-12-20T05:46:09;1.02;;;0.85;;
5257;SDS011;2651;51.594;9.928;2023-12-20T05:47:14;1.80;;;1.20;;
5257;SDS011;2651;51.594;9.928;2023-12-20T05:48:16;1.88;;;1.00;;
5257;SDS011;2651;51.594;9.928;2023-12-20T05:49:18;1.95;;;0.90;;
5257;SDS011;2651;51.594;9.928;2023-12-20T05:50:19;6.15;;;0.93;;
5257;SDS011;2651;51.594;9.928;2023-12-20T05:51:22;4.63;;;1.15;;
5257;SDS011;2651;51.594;9.928;2023-12-20T05:52:27;3.33;;;0.80;;
5257;SDS011;2651;51.594;9.928;2023-12-20T05:53:28;0.80;;;0.77;;
5257;SDS011;2651;51.594;9.928;2023-12-20T05:54:33;3.60;;;2.45;;
5257;SDS011;2651;51.594;9.928;2023-12-20T05:55:35;2.60;;;1.33;;
5257;SDS011;2651;51.594;9.928;2023-12-20T05:56:37;8.68;;;1.13;;
5257;SDS011;2651;51.594;9.928;2023-12-20T05:57:38;1.50;;;0.70;;
5257;SDS011;2651;51.594;9.928;2023-12-20T05:59:06;1.73;;;1.30;;
5257;SDS011;2651;51.594;9.928;2023-12-20T06:00:08;3.75;;;1.15;;
5257;SDS011;2651;51.594;9.928;2023-12-20T06:01:10;0.82;;;0.70;;
5257;SDS011;2651;51.594;9.928;2023-12-20T06:02:12;3.33;;;1.20;;
5257;SDS011;2651;51.594;9.928;2023-12-20T06:03:14;0.82;;;0.82;;
5257;SDS011;2651;51.594;9.928;2023-12-20T06:04:15;1.45;;;1.33;;
5257;SDS011;2651;51.594;9.928;2023-12-20T06:05:17;2.25;;;1.20;;
5257;SDS011;2651;51.594;9.928;2023-12-20T06:06:22;1.80;;;1.60;;
5257;SDS011;2651;51.594;9.928;2023-12-20T06:07:30;1.27;;;1.23;;
5257;SDS011;2651;51.594;9.928;2023-12-20T06:08:35;1.48;;;1.33;;
5257;SDS011;2651;51.594;9.928;2023-12-20T06:09:37;4.25;;;1.23;;
5257;SDS011;2651;51.594;9.928;2023-12-20T06:10:44;2.58;;;1.10;;
5257;SDS011;2651;51.594;9.928;2023-12-20T06:11:46;1.30;;;1.10;;
5257;SDS011;2651;51.594;9.928;2023-12-20T06:12:48;1.00;;;0.90;;
5257;SDS011;2651;51.594;9.928;2023-12-20T06:13:51;0.80;;;0.80;;
5257;SDS011;2651;51.594;9.928;2023-12-20T06:14:54;4.72;;;1.35;;
5257;SDS011;2651;51.594;9.928;2023-12-20T06:16:04;1.92;;;1.20;;
5257;SDS011;2651;51.594;9.928;2023-12-20T06:17:10;2.08;;;1.25;;
5257;SDS011;2651;51.594;9.928;2023-12-20T06:18:12;1.27;;;1.02;;
5257;SDS011;2651;51.594;9.928;2023-12-20T06:19:14;2.08;;;1.05;;
5257;SDS011;2651;51.594;9.928;2023-12-20T06:20:16;1.98;;;1.50;;
5257;SDS011;2651;51.594;9.928;2023-12-20T06:21:18;1.20;;;1.02;;
5257;SDS011;2651;51.594;9.928;2023-12-20T06:22:23;2.13;;;1.65;;
5257;SDS011;2651;51.594;9.928;2023-12-20T06:23:28;1.98;;;1.10;;
5257;SDS011;2651;51.594;9.928;2023-12-20T06:24:29;0.70;;;0.70;;
5257;SDS011;2651;51.594;9.928;2023-12-20T06:25:31;2.47;;;1.15;;
5257;SDS011;2651;51.594;9.928;2023-12-20T06:26:35;2.05;;;1.10;;
5257;SDS011;2651;51.594;9.928;2023-12-20T06:27:37;3.25;;;1.30;;
5257;SDS011;2651;51.594;9.928;2023-12-20T06:28:38;0.95;;;0.93;;
5257;SDS011;2651;51.594;9.928;2023-12-20T06:29:42;1.80;;;1.20;;
5257;SDS011;2651;51.594;9.928;2023-12-20T06:30:46;5.60;;;2.00;;